Ocean Exporter — VRXJ4 — position and weather

sailwx.info

Track history (hours):
 
Tides and Currents Weather Stations Pressure Air Temp Water Temp Dewpoint Dewpoint Depression Visibility Wind Speed Wind Dir Waves Ship Positions

Ocean Exporter

Last reported at 2015-Mar-28 12:20 UTC. Time now 2015-Apr-19 17:35 UTC.
Position N 01°16' E 104°14'.
Warning: this ship's position is 22 days out of date.

Length 169 m; draft 9.3 m.

Type: Cargo ship. MMSI: 477980000.

Date/timePositionNaut miles runAvg speedWind from/ knotsBaromVisibWave heightAir tempDewpointWater temp
2015-Mar-28 12:20N 01°16' E 104°14'7 8.5
2015-Mar-28 11:30N 01°15' E 104°07'8 8.0
2015-Mar-28 10:32N 01°14' E 103°59'6 6.0
2015-Mar-28 09:33N 01°16' E 103°54'1 0.6
2015-Mar-28 08:11N 01°15' E 103°53'0 0.0
2015-Mar-28 07:26N 01°15' E 103°53'0 0.0
2015-Mar-28 06:26N 01°15' E 103°53'0 0.0
2015-Mar-28 05:32N 01°15' E 103°53'0 0.1
2015-Mar-28 04:14N 01°15' E 103°53'0 0.1
2015-Mar-28 03:29N 01°16' E 103°53'0 0.0
2015-Mar-28 01:32N 01°15' E 103°53'0 0.0
2015-Mar-28 00:10N 01°15' E 103°53'1 2.2
2015-Mar-27 23:32N 01°14' E 103°53'2 2.1
2015-Mar-27 22:23N 01°12' E 103°52'5 5.5
2015-Mar-27 21:24N 01°09' E 103°48'76 8.6
2015-Mar-27 12:31N 01°42' E 102°39'9 9.5
2015-Mar-27 11:34N 01°46' E 102°30'10 9.7
2015-Mar-27 10:32N 01°50' E 102°21'  
Track history (hours):
 
Tides and Currents Weather Stations Pressure Air Temp Water Temp Dewpoint Dewpoint Depression Visibility Wind Speed Wind Dir Waves Ship Positions

Ocean Exporter

Last reported at 2015-Mar-28 12:20 UTC. Time now 2015-Apr-19 17:35 UTC.
Position N 01°16' E 104°14'.
Warning: this ship's position is 22 days out of date.

Length 169 m; draft 9.3 m.

Type: Cargo ship. MMSI: 477980000.

Date/timePositionNaut miles runAvg speedWind from/ knotsBaromVisibWave heightAir tempDewpointWater temp
2015-Mar-28 12:20N 01°16' E 104°14'7 8.5
2015-Mar-28 11:30N 01°15' E 104°07'8 8.0
2015-Mar-28 10:32N 01°14' E 103°59'6 6.0
2015-Mar-28 09:33N 01°16' E 103°54'1 0.6
2015-Mar-28 08:11N 01°15' E 103°53'0 0.0
2015-Mar-28 07:26N 01°15' E 103°53'0 0.0
2015-Mar-28 06:26N 01°15' E 103°53'0 0.0
2015-Mar-28 05:32N 01°15' E 103°53'0 0.1
2015-Mar-28 04:14N 01°15' E 103°53'0 0.1
2015-Mar-28 03:29N 01°16' E 103°53'0 0.0
2015-Mar-28 01:32N 01°15' E 103°53'0 0.0
2015-Mar-28 00:10N 01°15' E 103°53'1 2.2
2015-Mar-27 23:32N 01°14' E 103°53'2 2.1
2015-Mar-27 22:23N 01°12' E 103°52'5 5.5
2015-Mar-27 21:24N 01°09' E 103°48'76 8.6
2015-Mar-27 12:31N 01°42' E 102°39'9 9.5
2015-Mar-27 11:34N 01°46' E 102°30'10 9.7
2015-Mar-27 10:32N 01°50' E 102°21'  

Dump ship's entire track history